Buoy 13570

sailwx.info

Track history (hours):
 
Tides and Currents Weather Stations Pressure Air Temp Water Temp Dewpoint Dewpoint Depression Visibility Wind Speed Wind Dir Waves Ship Positions

Drifting buoy 13570

Last reported at 2015-May-26 14:00 UTC. Time now 2015-May-26 15:37 UTC.
Position N 36°19' W 024°07'.

Barometer 1028.6 mb
Water temperature 18.3 ° C

Date/timePositionNaut miles runAvg speedWind from/ knotsBaromVisibWave heightAir tempDewpointWater temp
2015-May-26 14:00N 36°19' W 024°07'1 0.3 1028.6 18.3
2015-May-26 12:00N 36°20' W 024°07'2 0.4 1029.0 18.2
2015-May-26 08:00N 36°20' W 024°06'1 0.7 1028.2 18.2
2015-May-26 07:00N 36°21' W 024°06'0 0.1 1027.9 18.2
2015-May-26 04:00N 36°21' W 024°06'1 0.1 1027.6 18.2
2015-May-25 23:00N 36°21' W 024°06'1 0.3 1029.3 18.3
2015-May-25 18:00N 36°22' W 024°04'0 0.4 1028.3 18.4
2015-May-25 17:00N 36°21' W 024°04'1 0.1 1028.4 18.4
2015-May-25 07:00N 36°23' W 024°03'1 1.0 1028.9 18.2
2015-May-25 06:00N 36°23' W 024°02'1 0.1 1028.6 18.2
2015-May-24 19:00N 36°23' W 024°00'1 0.2 1029.0 18.3
2015-May-24 12:00N 36°24' W 024°00'0 0.4 1031.3 18.2
2015-May-24 11:00N 36°24' W 023°60'1 0.7 1031.4 18.2
2015-May-24 10:00N 36°23' W 023°60'2 0.3 1031.0 18.1
2015-May-24 04:00N 36°24' W 023°57'0 0.0 1030.7 18.2
2015-May-23 21:00N 36°24' W 023°57'1 0.2 1032.4 18.2
2015-May-23 14:00N 36°25' W 023°57'0 0.3 1033.1 18.2
2015-May-23 13:00N 36°25' W 023°57'1 0.2 1033.6 18.1
2015-May-23 08:00N 36°24' W 023°58'1 0.3 1033.5 18.1
2015-May-23 04:00N 36°24' W 023°56'0 0.4 1033.2 18.1
2015-May-23 03:00N 36°24' W 023°56'2 0.3 1033.3 18.1
2015-May-22 19:00N 36°24' W 023°53'1 0.2 1033.2 18.5
2015-May-22 16:00N 36°25' W 023°53'1 0.3 1033.9 18.5
2015-May-22 13:00N 36°25' W 023°53'1 0.3 1034.3 18.5
2015-May-22 10:00N 36°25' W 023°52'2 0.4 1034.2 17.9
2015-May-22 06:00N 36°25' W 023°50'2 0.2 1032.9 18.3
2015-May-21 17:00N 36°27' W 023°49'0 0.2 1033.5 20.1
2015-May-21 16:00N 36°27' W 023°49'1 0.7 1033.3 19.3
2015-May-21 15:00N 36°28' W 023°50'0 0.1 1033.7 18.8
2015-May-21 13:00N 36°28' W 023°50'1 0.6 1033.9 18.5
2015-May-21 12:00N 36°27' W 023°50'2 0.5 1034.0 18.4
2015-May-21 07:00N 36°27' W 023°48'2 0.3 1032.6 17.9
2015-May-21 02:00N 36°28' W 023°49'1 0.2 1032.5 18.0
2015-May-20 23:00N 36°28' W 023°48'1 0.6 1033.0 18.0
2015-May-20 22:00N 36°29' W 023°47'2 0.1 1032.5 18.1
2015-May-20 10:00N 36°29' W 023°45'1 0.3 1031.5 17.9
2015-May-20 07:00N 36°30' W 023°45'1 0.3 1030.3 17.9
2015-May-20 03:00N 36°31' W 023°45'1 0.1 1030.4 17.9
2015-May-19 20:00N 36°31' W 023°44'0 0.2 1029.7 18.0
2015-May-19 19:00N 36°31' W 023°44'0 0.1 1029.4 18.1
2015-May-19 18:00N 36°31' W 023°44'1 0.1 1029.3 18.1
2015-May-19 10:00N 36°31' W 023°43'2 0.5 1029.7 17.8
2015-May-19 06:00N 36°32' W 023°40'0 0.1 1027.7 17.9
2015-May-19 05:00N 36°32' W 023°40'1 0.7 1027.1 17.9
2015-May-19 04:00N 36°33' W 023°40'1 0.7 1027.8 17.9
2015-May-19 03:00N 36°33' W 023°41'0 0.1 1028.0 17.9
2015-May-18 22:00N 36°32' W 023°41'1 0.4 1028.9 17.9
2015-May-18 20:00N 36°31' W 023°41'1 0.9 1028.4 17.9
2015-May-18 19:00N 36°31' W 023°40'0 0.5 1028.0 18.0
2015-May-18 18:00N 36°31' W 023°40'0 0.5 1027.6 18.0
2015-May-18 17:00N 36°31' W 023°39'0 0.0 1027.7 18.0
2015-May-18 16:00N 36°31' W 023°39'2 0.7 1027.8 18.0
2015-May-18 13:00N 36°31' W 023°37'1 0.6 1028.1 17.9
2015-May-18 12:00N 36°32' W 023°36'0 0.0 1028.1 17.9
2015-May-18 11:00N 36°32' W 023°36'1 0.6 1028.1 17.9
2015-May-18 10:00N 36°32' W 023°36'0 0.2 1027.9 17.9
2015-May-18 08:00N 36°32' W 023°35'1 0.7 1027.8 17.9
2015-May-18 07:00N 36°33' W 023°36'0 0.3 1027.6 17.9
2015-May-18 06:00N 36°33' W 023°36'0 0.4 1027.2 17.9
2015-May-18 05:00N 36°33' W 023°35'0 0.4 1026.9 17.9
2015-May-18 04:00N 36°34' W 023°36'1 0.4 1027.3 17.9
2015-May-18 00:00N 36°32' W 023°37'1 0.6 1028.3 17.9
2015-May-17 23:00N 36°32' W 023°36'1 0.7 1028.5 18.0
2015-May-17 22:00N 36°31' W 023°36'0 0.0 1028.5 18.0
2015-May-17 21:00N 36°31' W 023°36'1 0.9 1028.2 18.0
2015-May-17 20:00N 36°31' W 023°35'3 2.7 1028.1 18.0
2015-May-17 19:00N 36°32' W 023°32'1 0.8 1028.0 18.0
2015-May-17 18:00N 36°31' W 023°32'0 0.0 1028.1 18.1
2015-May-17 17:00N 36°31' W 023°32'1 0.7 1028.1 18.1
2015-May-17 15:00N 36°32' W 023°31'1 0.6 1028.5 18.1
2015-May-17 14:00N 36°33' W 023°31'1 0.2 1028.6 18.0
2015-May-17 11:00N 36°33' W 023°31'1 0.9 1029.8 17.8
2015-May-17 10:00N 36°34' W 023°32'0 0.0 1030.0 17.8
2015-May-17 08:00N 36°34' W 023°32'1 0.1 1029.8 17.8
2015-May-17 03:00N 36°34' W 023°32'3 0.5 1029.9 17.9
2015-May-16 22:00N 36°31' W 023°31'3 0.7 1031.1 17.9
2015-May-16 18:00N 36°31' W 023°27'   1031.3 17.9
Track history (hours):
 
Tides and Currents Weather Stations Pressure Air Temp Water Temp Dewpoint Dewpoint Depression Visibility Wind Speed Wind Dir Waves Ship Positions

Drifting buoy 13570

Last reported at 2015-May-26 14:00 UTC. Time now 2015-May-26 15:37 UTC.
Position N 36°19' W 024°07'.

Barometer 1028.6 mb
Water temperature 18.3 ° C

Date/timePositionNaut miles runAvg speedWind from/ knotsBaromVisibWave heightAir tempDewpointWater temp
2015-May-26 14:00N 36°19' W 024°07'1 0.3 1028.6 18.3
2015-May-26 12:00N 36°20' W 024°07'2 0.4 1029.0 18.2
2015-May-26 08:00N 36°20' W 024°06'1 0.7 1028.2 18.2
2015-May-26 07:00N 36°21' W 024°06'0 0.1 1027.9 18.2
2015-May-26 04:00N 36°21' W 024°06'1 0.1 1027.6 18.2
2015-May-25 23:00N 36°21' W 024°06'1 0.3 1029.3 18.3
2015-May-25 18:00N 36°22' W 024°04'0 0.4 1028.3 18.4
2015-May-25 17:00N 36°21' W 024°04'1 0.1 1028.4 18.4
2015-May-25 07:00N 36°23' W 024°03'1 1.0 1028.9 18.2
2015-May-25 06:00N 36°23' W 024°02'1 0.1 1028.6 18.2
2015-May-24 19:00N 36°23' W 024°00'1 0.2 1029.0 18.3
2015-May-24 12:00N 36°24' W 024°00'0 0.4 1031.3 18.2
2015-May-24 11:00N 36°24' W 023°60'1 0.7 1031.4 18.2
2015-May-24 10:00N 36°23' W 023°60'2 0.3 1031.0 18.1
2015-May-24 04:00N 36°24' W 023°57'0 0.0 1030.7 18.2
2015-May-23 21:00N 36°24' W 023°57'1 0.2 1032.4 18.2
2015-May-23 14:00N 36°25' W 023°57'0 0.3 1033.1 18.2
2015-May-23 13:00N 36°25' W 023°57'1 0.2 1033.6 18.1
2015-May-23 08:00N 36°24' W 023°58'1 0.3 1033.5 18.1
2015-May-23 04:00N 36°24' W 023°56'0 0.4 1033.2 18.1
2015-May-23 03:00N 36°24' W 023°56'2 0.3 1033.3 18.1
2015-May-22 19:00N 36°24' W 023°53'1 0.2 1033.2 18.5
2015-May-22 16:00N 36°25' W 023°53'1 0.3 1033.9 18.5
2015-May-22 13:00N 36°25' W 023°53'1 0.3 1034.3 18.5
2015-May-22 10:00N 36°25' W 023°52'2 0.4 1034.2 17.9
2015-May-22 06:00N 36°25' W 023°50'2 0.2 1032.9 18.3
2015-May-21 17:00N 36°27' W 023°49'0 0.2 1033.5 20.1
2015-May-21 16:00N 36°27' W 023°49'1 0.7 1033.3 19.3
2015-May-21 15:00N 36°28' W 023°50'0 0.1 1033.7 18.8
2015-May-21 13:00N 36°28' W 023°50'1 0.6 1033.9 18.5
2015-May-21 12:00N 36°27' W 023°50'2 0.5 1034.0 18.4
2015-May-21 07:00N 36°27' W 023°48'2 0.3 1032.6 17.9
2015-May-21 02:00N 36°28' W 023°49'1 0.2 1032.5 18.0
2015-May-20 23:00N 36°28' W 023°48'1 0.6 1033.0 18.0
2015-May-20 22:00N 36°29' W 023°47'2 0.1 1032.5 18.1
2015-May-20 10:00N 36°29' W 023°45'1 0.3 1031.5 17.9
2015-May-20 07:00N 36°30' W 023°45'1 0.3 1030.3 17.9
2015-May-20 03:00N 36°31' W 023°45'1 0.1 1030.4 17.9
2015-May-19 20:00N 36°31' W 023°44'0 0.2 1029.7 18.0
2015-May-19 19:00N 36°31' W 023°44'0 0.1 1029.4 18.1
2015-May-19 18:00N 36°31' W 023°44'1 0.1 1029.3 18.1
2015-May-19 10:00N 36°31' W 023°43'2 0.5 1029.7 17.8
2015-May-19 06:00N 36°32' W 023°40'0 0.1 1027.7 17.9
2015-May-19 05:00N 36°32' W 023°40'1 0.7 1027.1 17.9
2015-May-19 04:00N 36°33' W 023°40'1 0.7 1027.8 17.9
2015-May-19 03:00N 36°33' W 023°41'0 0.1 1028.0 17.9
2015-May-18 22:00N 36°32' W 023°41'1 0.4 1028.9 17.9
2015-May-18 20:00N 36°31' W 023°41'1 0.9 1028.4 17.9
2015-May-18 19:00N 36°31' W 023°40'0 0.5 1028.0 18.0
2015-May-18 18:00N 36°31' W 023°40'0 0.5 1027.6 18.0
2015-May-18 17:00N 36°31' W 023°39'0 0.0 1027.7 18.0
2015-May-18 16:00N 36°31' W 023°39'2 0.7 1027.8 18.0
2015-May-18 13:00N 36°31' W 023°37'1 0.6 1028.1 17.9
2015-May-18 12:00N 36°32' W 023°36'0 0.0 1028.1 17.9
2015-May-18 11:00N 36°32' W 023°36'1 0.6 1028.1 17.9
2015-May-18 10:00N 36°32' W 023°36'0 0.2 1027.9 17.9
2015-May-18 08:00N 36°32' W 023°35'1 0.7 1027.8 17.9
2015-May-18 07:00N 36°33' W 023°36'0 0.3 1027.6 17.9
2015-May-18 06:00N 36°33' W 023°36'0 0.4 1027.2 17.9
2015-May-18 05:00N 36°33' W 023°35'0 0.4 1026.9 17.9
2015-May-18 04:00N 36°34' W 023°36'1 0.4 1027.3 17.9
2015-May-18 00:00N 36°32' W 023°37'1 0.6 1028.3 17.9
2015-May-17 23:00N 36°32' W 023°36'1 0.7 1028.5 18.0
2015-May-17 22:00N 36°31' W 023°36'0 0.0 1028.5 18.0
2015-May-17 21:00N 36°31' W 023°36'1 0.9 1028.2 18.0
2015-May-17 20:00N 36°31' W 023°35'3 2.7 1028.1 18.0
2015-May-17 19:00N 36°32' W 023°32'1 0.8 1028.0 18.0
2015-May-17 18:00N 36°31' W 023°32'0 0.0 1028.1 18.1
2015-May-17 17:00N 36°31' W 023°32'1 0.7 1028.1 18.1
2015-May-17 15:00N 36°32' W 023°31'1 0.6 1028.5 18.1
2015-May-17 14:00N 36°33' W 023°31'1 0.2 1028.6 18.0
2015-May-17 11:00N 36°33' W 023°31'1 0.9 1029.8 17.8
2015-May-17 10:00N 36°34' W 023°32'0 0.0 1030.0 17.8
2015-May-17 08:00N 36°34' W 023°32'1 0.1 1029.8 17.8
2015-May-17 03:00N 36°34' W 023°32'3 0.5 1029.9 17.9
2015-May-16 22:00N 36°31' W 023°31'3 0.7 1031.1 17.9
2015-May-16 18:00N 36°31' W 023°27'   1031.3 17.9

Dump ship's entire track history